Time;durP1;ratioP1;P1;durP2;ratioP2;P2;SDS_P1;SDS_P2;PMS_P1;PMS_P2;Temp;Humidity;BMP_temperature;BMP_pressure;BME280_temperature;BME280_humidity;BME280_pressure;Samples;Min_cycle;Max_cycle;Signal;HPM_P1;HPM_P2
2021/01/01 00:02:54;;;;;;;3.28;2.10;;;20.70;44.90;;;;;;6301140;28;20031;-58
2021/01/01 00:05:54;;;;;;;2.80;1.98;;;20.60;44.90;;;;;;6301400;28;20077;-58
2021/01/01 00:08:56;;;;;;;2.55;1.88;;;20.60;44.80;;;;;;6301464;28;20024;-56
2021/01/01 00:11:56;;;;;;;3.50;1.77;;;20.60;44.80;;;;;;6301086;28;20484;-58
2021/01/01 00:15:00;;;;;;;4.13;2.17;;;20.60;44.90;;;;;;6301392;28;20085;-56
2021/01/01 00:18:03;;;;;;;2.92;2.05;;;20.60;45.60;;;;;;6301172;28;20117;-56
2021/01/01 00:21:04;;;;;;;3.03;1.98;;;20.60;44.80;;;;;;6301238;28;20020;-58
2021/01/01 00:24:06;;;;;;;3.90;2.30;;;20.60;44.80;;;;;;6301054;28;20059;-58
2021/01/01 00:27:06;;;;;;;3.28;2.15;;;20.60;44.90;;;;;;6300917;28;20030;-58
2021/01/01 00:30:10;;;;;;;3.15;2.33;;;20.60;44.90;;;;;;6301251;28;20030;-56
2021/01/01 00:33:11;;;;;;;4.25;2.45;;;20.60;44.90;;;;;;6291283;28;20024;-54
2021/01/01 00:36:14;;;;;;;2.97;2.20;;;20.60;44.90;;;;;;6275755;28;20019;-51
2021/01/01 00:39:14;;;;;;;4.25;2.63;;;20.60;44.90;;;;;;6275712;28;20023;-56
2021/01/01 00:42:15;;;;;;;3.83;2.50;;;20.60;44.90;;;;;;6276112;28;20477;-53
2021/01/01 00:45:16;;;;;;;3.47;2.55;;;20.60;45.00;;;;;;6276617;28;20060;-54
2021/01/01 00:48:19;;;;;;;3.78;2.65;;;20.60;45.00;;;;;;6275863;28;20034;-53
2021/01/01 00:51:26;;;;;;;3.78;2.53;;;20.50;44.90;;;;;;6275570;28;20047;-52
2021/01/01 00:54:27;;;;;;;3.33;2.60;;;20.50;44.90;;;;;;6275641;28;20067;-50
2021/01/01 00:57:27;;;;;;;3.85;2.60;;;20.60;45.00;;;;;;6275595;28;20016;-51
2021/01/01 01:00:30;;;;;;;4.22;2.45;;;20.60;44.90;;;;;;6275480;28;20017;-49
2021/01/01 01:03:31;;;;;;;5.10;3.13;;;20.60;45.00;;;;;;6275281;28;20074;-54
2021/01/01 01:06:31;;;;;;;4.53;2.83;;;20.50;44.90;;;;;;6275644;28;20477;-52
2021/01/01 01:09:32;;;;;;;4.63;2.95;;;20.50;45.00;;;;;;6275163;28;20032;-54
2021/01/01 01:12:32;;;;;;;7.80;3.28;;;20.60;45.00;;;;;;6275295;28;20028;-51
2021/01/01 01:15:33;;;;;;;10.77;3.45;;;20.60;45.70;;;;;;6275164;28;20021;-54
2021/01/01 01:18:35;;;;;;;4.65;3.10;;;20.50;45.00;;;;;;6275237;28;20027;-54
2021/01/01 01:21:36;;;;;;;7.13;3.20;;;20.50;45.00;;;;;;6275151;28;20021;-49
2021/01/01 01:24:39;;;;;;;6.30;3.53;;;20.50;45.00;;;;;;6275009;28;20481;-52
2021/01/01 01:27:39;;;;;;;7.68;3.72;;;20.50;45.00;;;;;;6275347;28;20040;-51
2021/01/01 01:30:40;;;;;;;6.80;3.80;;;20.50;45.00;;;;;;6274972;28;20024;-50
2021/01/01 01:33:40;;;;;;;8.20;4.68;;;20.50;45.10;;;;;;6274903;28;20777;-51
2021/01/01 01:36:41;;;;;;;9.18;4.20;;;20.50;45.10;;;;;;6274935;28;20056;-50
2021/01/01 01:39:41;;;;;;;8.48;4.43;;;20.50;45.10;;;;;;6274956;28;20063;-53
2021/01/01 01:42:42;;;;;;;8.07;4.43;;;20.50;45.10;;;;;;6274996;28;20138;-54
2021/01/01 01:45:43;;;;;;;7.68;4.28;;;20.50;45.10;;;;;;6278610;28;20059;-56
2021/01/01 01:48:44;;;;;;;8.00;4.88;;;20.50;45.10;;;;;;6279927;28;20513;-51
2021/01/01 01:51:47;;;;;;;7.90;4.63;;;20.50;45.10;;;;;;6279807;28;20167;-52
2021/01/01 01:54:48;;;;;;;11.65;4.82;;;20.50;45.20;;;;;;6279730;28;20115;-50
2021/01/01 01:57:49;;;;;;;9.43;5.03;;;20.50;45.10;;;;;;6279948;28;20032;-56
2021/01/01 02:00:59;;;;;;;10.25;5.13;;;20.50;45.10;;;;;;6279656;28;20024;-51
2021/01/01 02:03:59;;;;;;;10.75;5.10;;;20.50;45.20;;;;;;6279712;28;20021;-50
2021/01/01 02:07:00;;;;;;;13.77;5.43;;;20.50;45.20;;;;;;6279590;28;20062;-55
2021/01/01 02:10:03;;;;;;;13.85;6.03;;;20.50;45.60;;;;;;6297551;28;20029;-55
2021/01/01 02:13:05;;;;;;;8.48;5.43;;;20.50;45.20;;;;;;6279276;28;20058;-53
2021/01/01 02:16:08;;;;;;;14.30;5.30;;;20.50;45.20;;;;;;6279467;28;20055;-52
2021/01/01 02:19:12;;;;;;;11.45;5.57;;;20.50;45.20;;;;;;6278745;28;20393;-55
2021/01/01 02:22:12;;;;;;;12.60;5.65;;;20.50;45.20;;;;;;6278564;28;20036;-54
2021/01/01 02:25:13;;;;;;;12.68;5.78;;;20.50;45.20;;;;;;6278916;28;20401;-51
2021/01/01 02:28:17;;;;;;;11.20;5.40;;;20.50;45.90;;;;;;6278509;28;20032;-52
2021/01/01 02:31:18;;;;;;;12.82;5.38;;;20.40;45.20;;;;;;6302062;28;20453;-51
2021/01/01 02:34:18;;;;;;;12.63;6.00;;;20.50;45.20;;;;;;6303348;28;20024;-52
2021/01/01 02:37:19;;;;;;;13.02;5.57;;;20.50;45.30;;;;;;6303203;28;20024;-50
2021/01/01 02:40:19;;;;;;;14.07;6.78;;;20.50;45.30;;;;;;6303273;28;20027;-52
2021/01/01 02:43:20;;;;;;;15.27;6.45;;;20.50;45.70;;;;;;6303024;28;20028;-55
2021/01/01 02:46:21;;;;;;;15.25;6.72;;;20.50;46.00;;;;;;6303258;28;20027;-51
2021/01/01 02:49:21;;;;;;;11.88;5.90;;;20.50;46.60;;;;;;6302663;28;20695;-51
2021/01/01 02:52:22;;;;;;;13.82;6.35;;;20.50;46.90;;;;;;6302704;28;20468;-50
2021/01/01 02:55:22;;;;;;;14.50;6.63;;;20.50;46.80;;;;;;6302435;28;20085;-51
2021/01/01 02:58:25;;;;;;;15.25;6.78;;;20.40;47.30;;;;;;6302998;28;20070;-52
2021/01/01 03:01:26;;;;;;;14.52;6.28;;;20.40;46.50;;;;;;6302633;28;20034;-53
2021/01/01 03:04:26;;;;;;;11.60;6.07;;;20.40;46.50;;;;;;6303052;28;20024;-52
2021/01/01 03:07:27;;;;;;;12.77;6.68;;;20.40;46.40;;;;;;6302692;28;20511;-54
2021/01/01 03:10:27;;;;;;;14.05;6.43;;;20.40;46.30;;;;;;6302405;28;20016;-50
2021/01/01 03:13:31;;;;;;;10.90;5.32;;;20.40;46.30;;;;;;6302598;28;20016;-52
2021/01/01 03:16:31;;;;;;;13.95;6.55;;;20.40;46.30;;;;;;6302241;28;20023;-54
2021/01/01 03:19:32;;;;;;;12.48;5.72;;;20.40;46.20;;;;;;6302366;28;20023;-55
2021/01/01 03:22:32;;;;;;;14.50;6.05;;;20.40;46.20;;;;;;6281695;28;20025;-53
2021/01/01 03:25:33;;;;;;;13.05;6.25;;;20.40;46.20;;;;;;6277241;28;20029;-53
2021/01/01 03:28:33;;;;;;;13.57;6.03;;;20.40;46.10;;;;;;6277870;28;20082;-53
2021/01/01 03:31:34;;;;;;;12.27;6.00;;;20.40;46.10;;;;;;6301765;28;20025;-51
2021/01/01 03:34:35;;;;;;;12.07;6.18;;;20.40;46.10;;;;;;6301598;28;20499;-55
2021/01/01 03:37:38;;;;;;;11.63;6.35;;;20.40;46.80;;;;;;6301700;28;20048;-54
2021/01/01 03:40:38;;;;;;;12.52;6.45;;;20.40;46.10;;;;;;6301506;28;20027;-57
2021/01/01 03:43:39;;;;;;;11.60;5.90;;;20.40;46.00;;;;;;6301669;28;20036;-53
2021/01/01 03:46:39;;;;;;;10.80;5.47;;;20.40;46.00;;;;;;6293022;28;20046;-51
2021/01/01 03:49:40;;;;;;;9.93;5.88;;;20.40;46.00;;;;;;6282787;28;20435;-52
2021/01/01 03:52:40;;;;;;;9.88;5.32;;;20.40;46.00;;;;;;6284974;28;20025;-50
2021/01/01 03:55:41;;;;;;;9.70;5.32;;;20.40;45.90;;;;;;6276354;28;20044;-50
2021/01/01 03:58:41;;;;;;;9.82;5.43;;;20.40;46.00;;;;;;6276996;28;20021;-50
2021/01/01 04:01:42;;;;;;;12.23;5.68;;;20.40;45.90;;;;;;6276218;28;20381;-51
2021/01/01 04:04:42;;;;;;;9.68;5.22;;;20.30;45.80;;;;;;6276722;28;20024;-53
2021/01/01 04:07:46;;;;;;;9.60;5.50;;;20.30;45.80;;;;;;6275920;28;20021;-57
2021/01/01 04:10:46;;;;;;;9.55;4.93;;;20.30;45.80;;;;;;6275891;28;20024;-51
2021/01/01 04:13:47;;;;;;;10.70;5.45;;;20.30;45.80;;;;;;6276368;28;20467;-53
2021/01/01 04:16:50;;;;;;;10.13;5.55;;;20.30;45.80;;;;;;6275978;28;20036;-50
2021/01/01 04:19:53;;;;;;;8.38;4.68;;;20.30;45.80;;;;;;6295050;28;20024;-50
2021/01/01 04:22:53;;;;;;;9.93;5.25;;;20.30;45.80;;;;;;6300196;28;20028;-52
2021/01/01 04:25:54;;;;;;;8.77;4.60;;;20.40;45.90;;;;;;6300745;28;20070;-55
2021/01/01 04:28:54;;;;;;;7.97;4.47;;;20.30;45.80;;;;;;6282816;28;20099;-50
2021/01/01 04:31:55;;;;;;;8.38;5.03;;;20.30;45.90;;;;;;6295613;28;20324;-52
2021/01/01 04:34:55;;;;;;;7.85;4.65;;;20.30;45.90;;;;;;6275798;28;20031;-52
2021/01/01 04:37:58;;;;;;;7.15;4.80;;;20.30;45.80;;;;;;6275659;28;20016;-51
2021/01/01 04:40:59;;;;;;;8.93;5.00;;;20.40;45.90;;;;;;6287477;28;20027;-50
2021/01/01 04:44:00;;;;;;;7.07;4.47;;;20.30;45.80;;;;;;6300930;28;20028;-51
2021/01/01 04:47:04;;;;;;;7.25;4.75;;;20.30;45.80;;;;;;6300917;28;20032;-52
2021/01/01 04:50:06;;;;;;;7.63;4.20;;;20.30;45.80;;;;;;6318705;28;20460;-52
2021/01/01 04:53:09;;;;;;;7.07;4.47;;;20.30;45.80;;;;;;6300222;28;20489;-54
2021/01/01 04:56:09;;;;;;;7.28;4.43;;;20.30;45.80;;;;;;6300865;28;20423;-52
2021/01/01 04:59:10;;;;;;;7.82;4.70;;;20.30;45.80;;;;;;6300444;28;20020;-50
2021/01/01 05:02:11;;;;;;;8.77;4.70;;;20.30;45.80;;;;;;6299692;28;20024;-52
2021/01/01 05:05:16;;;;;;;8.70;5.18;;;20.30;45.80;;;;;;6300378;28;20024;-55
2021/01/01 05:08:17;;;;;;;8.65;5.07;;;20.30;45.80;;;;;;6299686;28;20031;-52
2021/01/01 05:11:21;;;;;;;8.45;4.55;;;20.30;45.80;;;;;;6299821;28;20032;-51
2021/01/01 05:14:28;;;;;;;6.97;4.70;;;20.30;45.90;;;;;;6292067;28;20028;-56
2021/01/01 05:17:36;;;;;;;6.78;4.75;;;20.30;45.90;;;;;;6298945;28;20103;-55
2021/01/01 05:20:36;;;;;;;6.30;4.35;;;20.30;45.80;;;;;;6274989;28;20052;-55
2021/01/01 05:23:41;;;;;;;8.40;4.32;;;20.30;45.80;;;;;;6274985;28;20486;-51
2021/01/01 05:26:47;;;;;;;7.13;4.85;;;20.30;45.80;;;;;;6274952;28;20521;-51
2021/01/01 05:29:55;;;;;;;7.72;4.50;;;20.30;45.80;;;;;;6285702;28;20035;-52
2021/01/01 05:32:56;;;;;;;6.13;4.38;;;20.30;45.80;;;;;;6299553;28;20039;-52
2021/01/01 05:36:06;;;;;;;6.35;4.10;;;20.30;45.80;;;;;;6299292;28;20025;-52
2021/01/01 05:39:08;;;;;;;7.47;4.57;;;20.30;45.80;;;;;;6299557;28;20241;-51
2021/01/01 05:42:09;;;;;;;7.15;4.55;;;20.30;46.50;;;;;;6299210;28;20432;-51
2021/01/01 05:45:17;;;;;;;7.13;4.40;;;20.30;45.80;;;;;;6299414;28;20020;-51
2021/01/01 05:48:20;;;;;;;6.18;4.07;;;20.30;45.90;;;;;;6299515;28;20076;-52
2021/01/01 05:51:21;;;;;;;6.63;4.60;;;20.20;45.80;;;;;;6299052;28;20438;-51
2021/01/01 05:54:21;;;;;;;6.22;4.03;;;20.30;45.90;;;;;;6299344;28;20036;-53
2021/01/01 05:57:22;;;;;;;5.85;4.20;;;20.30;45.90;;;;;;6299449;28;20095;-51
2021/01/01 06:00:23;;;;;;;6.32;4.10;;;20.30;45.90;;;;;;6298903;28;20497;-54
2021/01/01 06:03:28;;;;;;;8.13;3.90;;;20.20;45.80;;;;;;6317487;28;20028;-51
2021/01/01 06:06:33;;;;;;;5.82;3.90;;;20.20;45.80;;;;;;6299381;28;20035;-51
2021/01/01 06:09:36;;;;;;;6.00;3.60;;;20.30;45.80;;;;;;6288087;28;20405;-50
2021/01/01 06:12:38;;;;;;;5.70;3.88;;;20.30;45.40;;;;;;6274458;28;20029;-50
2021/01/01 06:15:42;;;;;;;6.03;3.80;;;20.40;45.40;;;;;;6274679;28;20021;-54
2021/01/01 06:18:50;;;;;;;5.03;3.53;;;20.50;45.40;;;;;;6274861;28;20020;-51
2021/01/01 06:21:57;;;;;;;7.45;3.97;;;20.60;45.50;;;;;;6274053;28;20025;-54
2021/01/01 06:25:00;;;;;;;6.57;3.80;;;20.60;45.50;;;;;;6274617;28;20107;-54
2021/01/01 06:28:01;;;;;;;4.70;3.45;;;20.60;45.50;;;;;;6274359;28;20039;-51
2021/01/01 06:31:04;;;;;;;5.40;3.67;;;20.70;45.60;;;;;;6277108;28;20127;-50
2021/01/01 06:34:28;;;;;;;6.10;3.78;;;20.70;45.60;;;;;;6282187;28;20031;-52
2021/01/01 06:37:56;;;;;;;4.97;3.45;;;20.70;45.70;;;;;;6303871;28;20470;-50
2021/01/01 06:40:56;;;;;;;5.60;3.60;;;20.80;45.80;;;;;;6300341;28;20123;-50
2021/01/01 06:43:57;;;;;;;5.30;3.80;;;20.80;45.80;;;;;;6303440;28;20032;-53
2021/01/01 06:46:57;;;;;;;5.07;3.53;;;20.80;45.90;;;;;;6303323;28;20026;-51
2021/01/01 06:49:58;;;;;;;4.50;3.28;;;20.80;45.80;;;;;;6303369;28;20652;-54
2021/01/01 06:53:04;;;;;;;6.22;3.70;;;20.90;45.90;;;;;;6303204;28;20059;-51
2021/01/01 06:56:12;;;;;;;3.60;2.90;;;20.90;45.90;;;;;;6303285;28;20653;-52
2021/01/01 06:59:14;;;;;;;4.95;3.60;;;20.90;45.80;;;;;;6321310;28;20016;-54
2021/01/01 07:02:25;;;;;;;5.00;3.20;;;20.90;45.80;;;;;;6304499;28;20081;-54
2021/01/01 07:05:26;;;;;;;5.45;3.72;;;20.90;45.80;;;;;;6304585;28;20024;-54
2021/01/01 07:08:42;;;;;;;5.10;3.15;;;20.90;45.80;;;;;;6304226;28;20028;-53
2021/01/01 07:11:43;;;;;;;5.18;3.50;;;21.00;45.80;;;;;;6303777;28;20024;-51
2021/01/01 07:14:43;;;;;;;5.00;3.30;;;21.00;46.50;;;;;;6301891;28;20028;-53
2021/01/01 07:17:47;;;;;;;4.95;3.33;;;21.00;45.80;;;;;;6278914;28;20090;-51
2021/01/01 07:20:48;;;;;;;4.72;3.00;;;21.00;45.70;;;;;;6295967;28;20035;-55
2021/01/01 07:23:48;;;;;;;4.85;3.20;;;21.00;45.70;;;;;;6278343;28;20024;-52
2021/01/01 07:26:49;;;;;;;4.57;3.10;;;21.00;45.70;;;;;;6278076;28;20025;-53
2021/01/01 07:29:49;;;;;;;3.90;3.00;;;21.00;45.70;;;;;;6289815;28;20049;-56
2021/01/01 07:32:52;;;;;;;4.40;3.00;;;21.00;45.60;;;;;;6303323;28;20488;-52
2021/01/01 07:36:12;;;;;;;4.55;3.22;;;21.10;45.80;;;;;;6303202;28;20024;-56
2021/01/01 07:39:13;;;;;;;4.18;3.17;;;21.00;45.70;;;;;;6302372;28;20060;-52
2021/01/01 07:42:13;;;;;;;4.78;3.42;;;21.10;45.80;;;;;;6301736;28;20028;-50
2021/01/01 07:45:14;;;;;;;4.55;3.22;;;21.00;45.70;;;;;;6302889;28;20027;-52
2021/01/01 07:48:15;;;;;;;4.72;3.22;;;21.00;45.70;;;;;;6302928;28;20027;-51
2021/01/01 07:51:19;;;;;;;4.57;3.15;;;21.10;45.80;;;;;;6301979;28;20028;-55
2021/01/01 07:54:19;;;;;;;4.70;2.80;;;21.10;45.80;;;;;;6302378;28;20154;-51
2021/01/01 07:57:21;;;;;;;4.47;3.30;;;21.00;45.70;;;;;;6302314;28;20650;-53
2021/01/01 08:00:21;;;;;;;4.90;3.38;;;21.10;45.80;;;;;;6302031;28;20031;-50
2021/01/01 08:03:22;;;;;;;4.20;3.05;;;21.10;46.50;;;;;;6302340;28;20028;-51
2021/01/01 08:06:23;;;;;;;3.85;2.85;;;21.10;45.80;;;;;;6302396;28;20028;-50
2021/01/01 08:09:23;;;;;;;4.10;3.03;;;21.10;45.70;;;;;;6302604;28;20024;-54
2021/01/01 08:12:24;;;;;;;4.03;2.92;;;21.10;45.80;;;;;;6301957;28;20016;-54
2021/01/01 08:15:29;;;;;;;3.80;2.80;;;21.10;45.70;;;;;;6302286;28;20033;-57
2021/01/01 08:18:31;;;;;;;3.53;2.65;;;21.10;45.70;;;;;;6278430;28;20025;-54
2021/01/01 08:21:37;;;;;;;3.40;2.55;;;21.10;45.80;;;;;;6276829;28;20385;-54
2021/01/01 08:24:42;;;;;;;4.50;2.90;;;21.10;45.80;;;;;;6277387;28;20400;-56
2021/01/01 08:27:44;;;;;;;3.88;2.78;;;21.10;45.80;;;;;;6292909;28;20398;-54
2021/01/01 08:30:51;;;;;;;3.97;2.90;;;21.10;45.80;;;;;;6282894;28;20036;-53
2021/01/01 08:33:53;;;;;;;3.88;2.78;;;21.10;45.90;;;;;;6276620;28;20024;-54
2021/01/01 08:36:54;;;;;;;3.95;2.75;;;21.10;45.80;;;;;;6277141;28;20020;-55
2021/01/01 08:40:05;;;;;;;3.60;2.85;;;21.10;45.90;;;;;;6276756;28;20043;-53
2021/01/01 08:43:06;;;;;;;4.10;3.15;;;21.10;45.80;;;;;;6276763;28;20028;-57
2021/01/01 08:46:18;;;;;;;4.15;3.00;;;21.10;46.50;;;;;;6276819;28;20028;-55
2021/01/01 08:49:21;;;;;;;3.58;2.90;;;21.10;45.70;;;;;;6276717;28;20024;-58
2021/01/01 08:52:22;;;;;;;4.07;2.63;;;21.10;45.80;;;;;;6285505;28;20028;-52
2021/01/01 08:55:23;;;;;;;4.70;2.95;;;21.10;45.80;;;;;;6302099;28;20027;-53
2021/01/01 08:58:24;;;;;;;4.25;2.80;;;21.10;45.80;;;;;;6285784;28;20063;-57
2021/01/01 09:01:25;;;;;;;3.30;2.50;;;21.10;45.70;;;;;;6276223;28;20027;-53
2021/01/01 09:04:29;;;;;;;3.45;2.67;;;21.10;45.70;;;;;;6278650;28;20036;-58
2021/01/01 09:07:30;;;;;;;3.17;2.30;;;21.10;45.70;;;;;;6294410;28;20104;-55
2021/01/01 09:10:31;;;;;;;4.35;3.30;;;21.10;45.70;;;;;;6276161;28;20546;-53
2021/01/01 09:13:31;;;;;;;3.80;2.80;;;21.10;45.70;;;;;;6275756;28;20032;-53
2021/01/01 09:16:34;;;;;;;4.15;2.70;;;21.10;45.70;;;;;;6276452;28;20032;-56
2021/01/01 09:19:35;;;;;;;6.20;2.78;;;21.10;45.70;;;;;;6298364;28;20031;-55
2021/01/01 09:22:38;;;;;;;3.45;2.25;;;21.10;45.70;;;;;;6300995;28;20020;-58
2021/01/01 09:25:40;;;;;;;2.95;2.38;;;21.10;45.70;;;;;;6301124;28;20476;-55
2021/01/01 09:28:41;;;;;;;3.17;2.53;;;21.10;45.70;;;;;;6289150;28;20039;-57
2021/01/01 09:31:45;;;;;;;3.15;2.60;;;21.10;46.30;;;;;;6300611;28;20519;-55
2021/01/01 09:34:45;;;;;;;3.85;2.60;;;21.10;45.70;;;;;;6300864;28;20024;-55
2021/01/01 09:38:00;;;;;;;3.40;2.60;;;21.10;45.80;;;;;;6296561;28;20127;-56
2021/01/01 09:41:01;;;;;;;3.20;2.65;;;21.10;45.70;;;;;;6287272;28;20396;-57
2021/01/01 09:44:02;;;;;;;3.10;2.40;;;21.10;45.70;;;;;;6300987;28;20028;-56
2021/01/01 09:47:02;;;;;;;4.07;2.42;;;21.10;45.80;;;;;;6300764;28;20390;-53
2021/01/01 09:50:07;;;;;;;3.00;2.58;;;21.10;45.70;;;;;;6278590;28;20029;-52
2021/01/01 09:53:08;;;;;;;3.05;2.53;;;21.10;45.70;;;;;;6286069;28;20028;-52
2021/01/01 09:56:08;;;;;;;2.85;2.20;;;21.10;45.70;;;;;;6300725;28;20031;-55
2021/01/01 09:59:09;;;;;;;2.70;1.95;;;21.10;45.70;;;;;;6300627;28;20020;-54
2021/01/01 10:02:09;;;;;;;2.72;2.20;;;21.20;45.80;;;;;;6300473;28;20028;-56
2021/01/01 10:05:11;;;;;;;3.72;2.40;;;21.20;45.80;;;;;;6301702;28;20036;-55
2021/01/01 10:08:15;;;;;;;2.90;2.13;;;21.20;45.70;;;;;;6301556;28;20024;-53
2021/01/01 10:11:15;;;;;;;3.13;2.17;;;21.20;45.80;;;;;;6280276;28;20021;-56
2021/01/01 10:14:16;;;;;;;3.35;2.38;;;21.10;45.60;;;;;;6280184;28;20060;-53
2021/01/01 10:17:23;;;;;;;3.10;2.40;;;21.20;45.80;;;;;;6280355;28;20429;-53
2021/01/01 10:20:24;;;;;;;2.63;2.10;;;21.10;46.50;;;;;;6300632;28;20503;-57
2021/01/01 10:23:25;;;;;;;2.72;2.22;;;21.10;45.70;;;;;;6304865;28;20038;-52
2021/01/01 10:26:27;;;;;;;4.70;2.40;;;21.10;45.70;;;;;;6304951;28;20031;-54
2021/01/01 10:29:28;;;;;;;3.00;2.40;;;21.10;45.70;;;;;;6296083;28;20028;-55
2021/01/01 10:32:28;;;;;;;3.17;2.20;;;21.20;45.80;;;;;;6297320;28;20241;-53
2021/01/01 10:35:29;;;;;;;2.47;2.00;;;21.20;45.90;;;;;;6279960;28;20020;-57
2021/01/01 10:38:31;;;;;;;3.35;2.08;;;21.10;45.70;;;;;;6279781;28;20021;-58
2021/01/01 10:41:32;;;;;;;2.90;2.42;;;21.10;45.80;;;;;;6279557;28;20033;-51
2021/01/01 10:44:32;;;;;;;2.90;2.15;;;21.10;45.90;;;;;;6279540;28;20051;-51
2021/01/01 10:47:33;;;;;;;3.28;2.35;;;21.10;45.70;;;;;;6279590;28;20437;-53
2021/01/01 10:50:33;;;;;;;2.05;1.80;;;21.20;45.80;;;;;;6297597;28;20030;-56
2021/01/01 10:53:34;;;;;;;2.75;2.00;;;21.20;45.90;;;;;;6304115;28;20032;-54
2021/01/01 10:56:34;;;;;;;2.58;2.17;;;21.20;45.80;;;;;;6304844;28;20016;-53
2021/01/01 10:59:35;;;;;;;3.20;2.33;;;21.10;45.70;;;;;;6304100;28;20076;-52
2021/01/01 11:02:35;;;;;;;3.85;2.67;;;21.20;45.80;;;;;;6304020;28;20024;-54
2021/01/01 11:05:38;;;;;;;3.47;2.35;;;21.20;45.80;;;;;;6303748;28;20020;-52
2021/01/01 11:08:43;;;;;;;2.33;2.10;;;21.20;45.60;;;;;;6304144;28;20503;-53
2021/01/01 11:11:45;;;;;;;3.20;2.38;;;21.10;45.70;;;;;;6304010;28;20032;-54
2021/01/01 12:22:11;;;;;;;3.40;2.35;;;21.60;45.50;;;;;;6300694;28;20056;-53
2021/01/01 12:24:52;;;;;;;3.15;2.05;;;21.60;45.40;;;;;;6290901;28;20033;-51
2021/01/01 12:27:57;;;;;;;3.50;2.15;;;21.70;45.40;;;;;;6282318;28;20031;-54
2021/01/01 12:30:58;;;;;;;;;;;21.80;45.40;;;;;;6283179;28;20063;-50
2021/01/01 12:34:02;;;;;;;6.63;3.85;;;21.80;45.00;;;;;;6274345;28;19948;-50
2021/01/01 12:37:03;;;;;;;3.33;2.20;;;21.90;45.20;;;;;;6284846;28;20476;-49
2021/01/01 12:40:08;;;;;;;3.08;2.08;;;22.00;45.10;;;;;;6299752;28;20030;-50
2021/01/01 12:43:08;;;;;;;;;;;21.90;45.20;;;;;;6300034;28;20024;-49
2021/01/01 12:46:12;;;;;;;3.35;2.20;;;21.80;45.10;;;;;;6300224;28;19911;-51
2021/01/01 12:49:12;;;;;;;2.45;2.00;;;21.80;45.20;;;;;;6280213;28;20111;-52
2021/01/01 12:52:13;;;;;;;2.72;1.95;;;21.80;45.20;;;;;;6299047;28;20477;-48
2021/01/01 12:55:14;;;;;;;3.45;2.13;;;21.80;45.30;;;;;;6292268;28;20458;-49
2021/01/01 12:58:15;;;;;;;4.25;2.25;;;21.80;45.20;;;;;;6284031;28;20027;-51
2021/01/01 13:01:15;;;;;;;2.97;2.10;;;21.80;45.20;;;;;;6285655;28;20035;-52
2021/01/01 13:04:16;;;;;;;4.55;2.10;;;21.80;45.20;;;;;;6275045;28;20085;-59
2021/01/01 13:07:16;;;;;;;3.33;2.20;;;21.80;45.20;;;;;;6321462;28;20551;-54
2021/01/01 13:10:17;;;;;;;5.45;2.08;;;21.80;45.20;;;;;;6291600;28;20039;-54
2021/01/01 13:13:17;;;;;;;5.03;2.25;;;21.80;45.10;;;;;;6297051;28;20024;-60
2021/01/01 13:16:24;;;;;;;3.25;1.90;;;21.80;45.30;;;;;;6295248;28;20017;-51
2021/01/01 13:19:25;;;;;;;8.68;3.45;;;21.90;45.30;;;;;;6295954;28;20069;-52
2021/01/01 13:22:26;;;;;;;5.28;1.80;;;22.00;45.30;;;;;;6296917;28;20016;-54
2021/01/01 13:25:26;;;;;;;6.05;2.03;;;22.00;45.20;;;;;;6299327;28;20025;-53
2021/01/01 13:28:27;;;;;;;3.17;2.30;;;22.10;45.00;;;;;;6299103;28;20036;-55
2021/01/01 13:31:37;;;;;;;5.20;2.35;;;22.10;44.90;;;;;;6296525;28;20020;-53
2021/01/01 13:34:38;;;;;;;4.13;1.80;;;22.10;44.80;;;;;;6298537;28;20318;-56
2021/01/01 13:37:39;;;;;;;3.10;2.08;;;22.20;44.80;;;;;;6307039;28;20030;-50
2021/01/01 13:40:39;;;;;;;4.32;2.53;;;22.20;44.70;;;;;;6299743;28;20048;-52
2021/01/01 13:43:42;;;;;;;2.70;2.03;;;22.20;44.70;;;;;;6297452;28;20032;-55
2021/01/01 13:46:44;;;;;;;2.85;2.17;;;22.20;44.70;;;;;;6304222;28;20020;-55
2021/01/01 13:49:44;;;;;;;3.40;2.00;;;22.20;44.60;;;;;;6304927;28;20396;-54
2021/01/01 13:52:47;;;;;;;2.92;2.15;;;22.20;44.60;;;;;;6305828;28;20023;-56
2021/01/01 13:55:47;;;;;;;2.85;1.95;;;22.30;44.60;;;;;;6304548;28;20054;-54
2021/01/01 13:58:48;;;;;;;3.33;2.10;;;22.20;44.50;;;;;;6293228;28;20477;-54
2021/01/01 14:01:49;;;;;;;3.42;1.92;;;22.20;44.50;;;;;;6279308;28;20031;-57
2021/01/01 14:04:50;;;;;;;2.38;2.03;;;22.20;44.50;;;;;;6280768;28;20485;-52
2021/01/01 14:07:53;;;;;;;5.32;2.10;;;22.20;44.50;;;;;;6304023;28;20020;-53
2021/01/01 14:10:54;;;;;;;4.70;1.60;;;22.30;44.60;;;;;;6304325;28;20076;-56
2021/01/01 14:13:55;;;;;;;2.30;1.80;;;22.20;44.50;;;;;;6302812;28;20693;-54
2021/01/01 14:16:55;;;;;;;4.03;1.98;;;22.20;44.60;;;;;;6288445;28;20066;-57
2021/01/01 14:19:56;;;;;;;5.50;2.08;;;22.20;44.70;;;;;;6278796;28;20021;-55
2021/01/01 14:22:57;;;;;;;2.25;1.88;;;22.30;44.60;;;;;;6295418;28;20027;-56
2021/01/01 14:25:57;;;;;;;4.10;2.00;;;22.30;44.60;;;;;;6302962;28;20027;-58
2021/01/01 14:28:58;;;;;;;2.13;1.73;;;22.20;44.60;;;;;;6303608;28;20039;-57
2021/01/01 14:31:58;;;;;;;2.50;1.70;;;22.20;44.70;;;;;;6300292;28;20560;-57
2021/01/01 14:34:59;;;;;;;6.15;1.75;;;22.20;44.70;;;;;;6302445;28;20024;-57
2021/01/01 14:37:59;;;;;;;3.85;1.95;;;22.20;44.70;;;;;;6302602;28;20070;-53
2021/01/01 14:41:00;;;;;;;7.72;2.33;;;22.20;44.70;;;;;;6303038;28;20020;-56
2021/01/01 14:44:05;;;;;;;7.00;1.92;;;22.30;44.70;;;;;;6302508;28;20031;-48
2021/01/01 14:47:05;;;;;;;;;;;22.20;44.70;;;;;;6297750;28;20028;-51
2021/01/01 14:50:06;;;;;;;2.40;1.60;;;22.20;44.90;;;;;;6303028;28;19904;-52
2021/01/01 14:53:07;;;;;;;3.72;1.70;;;22.10;44.70;;;;;;6301881;28;20024;-50
2021/01/01 14:56:07;;;;;;;4.70;2.10;;;22.20;44.90;;;;;;6303414;28;20020;-50
2021/01/01 14:59:08;;;;;;;2.78;1.65;;;22.20;45.00;;;;;;6302316;28;20105;-55
2021/01/01 15:02:11;;;;;;;3.40;1.83;;;22.20;45.00;;;;;;6302782;28;20027;-54
2021/01/01 15:05:12;;;;;;;4.93;1.60;;;22.20;45.00;;;;;;6298640;28;20046;-54
2021/01/01 15:08:13;;;;;;;8.05;1.98;;;22.20;45.10;;;;;;6277684;28;20056;-53
2021/01/01 15:11:13;;;;;;;9.07;1.73;;;22.20;45.30;;;;;;6286893;28;20047;-48
2021/01/01 15:14:14;;;;;;;13.43;2.10;;;22.10;45.50;;;;;;6299477;28;20035;-55
2021/01/01 15:17:15;;;;;;;14.55;2.53;;;22.20;45.90;;;;;;6295884;28;20042;-52
2021/01/01 15:20:15;;;;;;;8.40;2.05;;;22.20;46.80;;;;;;6293922;28;20024;-56
2021/01/01 15:23:16;;;;;;;25.00;2.63;;;22.20;45.20;;;;;;6310372;28;20024;-54
2021/01/01 15:26:20;;;;;;;8.18;1.80;;;22.20;46.30;;;;;;6300086;28;20485;-68
2021/01/01 15:29:20;;;;;;;9.40;1.95;;;22.20;45.90;;;;;;6282614;28;20044;-58
2021/01/01 15:32:21;;;;;;;6.60;1.80;;;22.30;45.70;;;;;;6283236;28;20024;-55
2021/01/01 15:35:21;;;;;;;7.65;2.05;;;22.30;45.70;;;;;;6295664;28;20539;-61
2021/01/01 15:38:22;;;;;;;5.55;1.90;;;22.30;45.40;;;;;;6276148;28;20021;-60
2021/01/01 15:41:23;;;;;;;5.43;1.52;;;22.40;45.60;;;;;;6291656;28;20111;-60
2021/01/01 15:44:26;;;;;;;3.67;2.03;;;22.40;45.50;;;;;;6299998;28;20388;-56
2021/01/01 15:47:32;;;;;;;8.13;1.55;;;22.30;45.60;;;;;;6299190;28;20085;-58
2021/01/01 15:50:33;;;;;;;11.00;1.67;;;22.20;46.00;;;;;;6302210;28;20027;-52
2021/01/01 15:53:34;;;;;;;2.90;1.55;;;22.20;46.20;;;;;;6301855;28;20100;-54
2021/01/01 15:56:34;;;;;;;4.97;1.80;;;22.20;46.30;;;;;;6287991;28;20028;-52
2021/01/01 15:59:35;;;;;;;7.00;1.65;;;22.20;46.10;;;;;;6277089;28;20021;-51
2021/01/01 16:02:35;;;;;;;6.07;1.58;;;22.10;45.90;;;;;;6297466;28;20032;-51
2021/01/01 16:05:43;;;;;;;2.25;1.50;;;22.20;46.10;;;;;;6302460;28;20126;-51
2021/01/01 16:08:45;;;;;;;6.07;1.40;;;22.20;46.00;;;;;;6288296;28;20028;-63
2021/01/01 16:11:48;;;;;;;3.42;2.00;;;22.30;46.00;;;;;;6289231;28;20024;-65
2021/01/01 16:14:48;;;;;;;2.75;1.60;;;22.30;45.70;;;;;;6281537;28;20024;-51
2021/01/01 16:17:49;;;;;;;4.00;1.58;;;22.30;45.70;;;;;;6297718;28;20047;-53
2021/01/01 16:20:50;;;;;;;2.15;1.60;;;22.20;45.80;;;;;;6299969;28;20379;-55
2021/01/01 16:23:50;;;;;;;6.43;1.60;;;22.20;46.60;;;;;;6300680;28;20028;-54
2021/01/01 16:26:51;;;;;;;2.97;2.15;;;22.20;45.90;;;;;;6300743;28;20027;-49
2021/01/01 16:29:51;;;;;;;5.95;1.50;;;22.20;46.00;;;;;;6301431;28;20032;-52
2021/01/01 16:32:52;;;;;;;1.85;1.45;;;22.10;46.00;;;;;;6302025;28;20068;-52
2021/01/01 16:35:52;;;;;;;4.82;1.65;;;22.10;45.90;;;;;;6318331;28;20066;-60
2021/01/01 16:38:53;;;;;;;2.17;1.50;;;22.20;46.00;;;;;;6276270;28;20016;-51
2021/01/01 16:41:54;;;;;;;3.53;1.73;;;22.20;46.00;;;;;;6279944;28;20508;-52
2021/01/01 16:44:55;;;;;;;3.75;1.70;;;22.20;45.90;;;;;;6300448;28;20031;-51
2021/01/01 16:47:56;;;;;;;3.10;1.77;;;22.20;45.90;;;;;;6300458;28;20023;-50
2021/01/01 16:50:57;;;;;;;2.40;1.58;;;22.20;45.70;;;;;;6297007;28;20025;-51
2021/01/01 16:53:58;;;;;;;2.45;1.67;;;22.20;45.90;;;;;;6289660;28;20527;-52